Time;durP1;ratioP1;P1;durP2;ratioP2;P2;SDS_P1;SDS_P2;PMS_P1;PMS_P2;Temp;Humidity;BMP_temperature;BMP_pressure;BME280_temperature;BME280_humidity;BME280_pressure;Samples;Min_cycle;Max_cycle;Signal;HPM_P1;HPM_P2
2023/10/11 00:01:46;;;;;;;10.83;4.97;;;15.90;1.00;;;;;;4957178;29;20489;-89
2023/10/11 00:04:23;;;;;;;8.80;4.93;;;16.40;1.00;;;;;;4943263;29;20429;-89
2023/10/11 00:06:50;;;;;;;8.10;4.30;;;13.70;1.00;;;;;;4961362;29;20401;-88
2023/10/11 00:09:34;;;;;;;10.27;4.65;;;14.00;1.00;;;;;;4940499;29;20473;-90
2023/10/11 00:12:11;;;;;;;10.57;4.50;;;16.00;1.00;;;;;;4939337;29;20408;-89
2023/10/11 00:14:40;;;;;;;7.45;4.60;;;14.50;1.00;;;;;;4956550;29;20426;-89
2023/10/11 00:17:09;;;;;;;8.52;5.20;;;16.20;1.00;;;;;;4956338;28;20500;-90
2023/10/11 00:19:45;;;;;;;9.00;4.97;;;13.40;1.00;;;;;;4939061;29;20940;-88
2023/10/11 00:22:15;;;;;;;8.05;4.43;;;15.20;1.00;;;;;;4939249;29;20397;-89
2023/10/11 00:24:41;;;;;;;6.60;4.70;;;12.20;1.00;;;;;;4940487;29;20402;-89
2023/10/11 00:27:10;;;;;;;5.60;3.60;;;14.70;1.00;;;;;;4941891;29;20461;-89
2023/10/11 00:29:39;;;;;;;10.52;4.50;;;13.30;1.00;;;;;;4947491;29;20413;-89
2023/10/11 00:32:09;;;;;;;7.43;4.40;;;13.40;1.00;;;;;;4940736;29;20451;-89
2023/10/11 00:34:35;;;;;;;6.93;4.35;;;14.30;1.00;;;;;;4940234;29;20413;-89
2023/10/11 00:37:09;;;;;;;8.00;5.18;;;12.70;1.00;;;;;;4939163;29;20400;-89
2023/10/11 00:39:43;;;;;;;10.77;4.63;;;13.10;1.00;;;;;;4937249;29;20408;-89
2023/10/11 00:42:14;;;;;;;9.40;4.65;;;12.70;1.00;;;;;;4963651;28;20404;-88
2023/10/11 00:44:42;;;;;;;6.90;4.60;;;13.30;1.00;;;;;;4944033;28;20486;-89
2023/10/11 00:47:12;;;;;;;7.35;4.70;;;13.30;1.00;;;;;;4956936;28;20415;-87
2023/10/11 00:49:39;;;;;;;6.30;4.05;;;13.30;1.00;;;;;;4943036;28;20503;-89
2023/10/11 00:52:09;;;;;;;13.50;5.20;;;13.30;1.00;;;;;;4940204;28;20410;-88
2023/10/11 00:54:38;;;;;;;8.07;4.35;;;13.30;1.00;;;;;;4946715;29;20414;-89
2023/10/11 00:57:11;;;;;;;8.35;4.25;;;13.30;1.00;;;;;;4964004;29;20457;-89
2023/10/11 00:59:38;;;;;;;5.85;4.40;;;13.20;1.00;;;;;;4946480;29;20410;-88
2023/10/11 01:02:05;;;;;;;10.82;4.55;;;13.10;1.00;;;;;;4962567;29;20963;-88
2023/10/11 01:04:37;;;;;;;10.32;4.78;;;13.30;1.00;;;;;;4955470;28;20433;-89
2023/10/11 01:07:02;;;;;;;7.80;4.80;;;13.20;1.00;;;;;;4938820;29;20410;-88
2023/10/11 01:09:29;;;;;;;6.30;4.43;;;13.10;1.00;;;;;;4938399;29;20507;-88
2023/10/11 01:11:55;;;;;;;7.47;4.82;;;13.10;1.00;;;;;;4937834;29;20886;-88
2023/10/11 01:14:34;;;;;;;7.80;4.80;;;13.10;1.00;;;;;;4937936;29;20406;-89
2023/10/11 01:17:12;;;;;;;10.35;4.90;;;12.50;1.00;;;;;;4937405;29;20412;-88
2023/10/11 01:19:40;;;;;;;7.40;4.88;;;13.20;1.00;;;;;;4937923;29;20409;-88
2023/10/11 01:22:09;;;;;;;7.82;4.00;;;13.00;1.00;;;;;;4954162;29;20453;-89
2023/10/11 01:24:41;;;;;;;8.10;4.60;;;13.00;1.00;;;;;;4955350;29;20481;-89
2023/10/11 01:27:13;;;;;;;8.52;5.30;;;15.70;1.00;;;;;;4938172;29;20509;-89
2023/10/11 01:29:40;;;;;;;8.10;5.03;;;14.50;1.00;;;;;;4955365;29;20433;-89
2023/10/11 01:32:10;;;;;;;8.38;4.63;;;13.70;1.00;;;;;;4937069;29;20485;-88
2023/10/11 01:34:36;;;;;;;7.95;4.45;;;13.00;1.00;;;;;;4937409;29;20405;-89
2023/10/11 01:37:06;;;;;;;7.20;3.75;;;13.00;1.00;;;;;;4937334;29;20413;-89
2023/10/11 01:39:32;;;;;;;6.63;4.30;;;16.30;1.00;;;;;;4943428;28;20486;-88
2023/10/11 01:42:02;;;;;;;7.80;4.40;;;12.90;1.00;;;;;;4956701;28;20414;-89
2023/10/11 01:44:30;;;;;;;9.32;4.90;;;13.30;1.00;;;;;;4956903;28;20880;-89
2023/10/11 01:46:57;;;;;;;8.85;4.53;;;12.90;1.00;;;;;;4956826;28;20947;-88
2023/10/11 01:49:23;;;;;;;7.55;4.22;;;12.90;1.00;;;;;;4956430;28;20898;-89
2023/10/11 01:51:55;;;;;;;9.07;4.45;;;13.00;1.00;;;;;;4956746;29;20448;-88
2023/10/11 01:54:22;;;;;;;7.95;4.28;;;14.90;1.00;;;;;;4942347;29;20469;-89
2023/10/11 01:56:49;;;;;;;7.73;4.60;;;13.00;1.00;;;;;;4939743;29;20402;-89
2023/10/11 01:59:25;;;;;;;8.02;4.47;;;13.00;1.00;;;;;;4962390;29;20417;-89
2023/10/11 02:02:02;;;;;;;8.25;4.25;;;13.90;1.00;;;;;;4947765;29;20421;-89
2023/10/11 02:04:31;;;;;;;6.43;4.50;;;16.60;1.00;;;;;;4945183;29;20429;-88
2023/10/11 02:06:57;;;;;;;7.70;4.30;;;13.90;1.00;;;;;;4956616;29;20413;-88
2023/10/11 02:09:23;;;;;;;9.55;4.28;;;16.80;1.00;;;;;;4960855;28;20421;-90
2023/10/11 02:11:58;;;;;;;7.90;4.20;;;13.20;1.00;;;;;;4947877;29;20398;-88
2023/10/11 02:14:24;;;;;;;7.05;4.38;;;14.30;1.00;;;;;;4939817;29;20389;-88
2023/10/11 02:16:55;;;;;;;8.77;3.70;;;13.60;1.00;;;;;;4937637;28;20762;-89
2023/10/11 02:19:32;;;;;;;7.55;4.50;;;13.10;1.00;;;;;;4937311;29;20401;-88
2023/10/11 02:22:00;;;;;;;7.68;4.13;;;14.00;1.00;;;;;;4953765;29;20390;-89
2023/10/11 02:24:35;;;;;;;9.30;4.10;;;13.20;1.00;;;;;;4937139;29;20406;-88
2023/10/11 02:27:06;;;;;;;5.93;3.83;;;14.20;1.00;;;;;;4937314;29;21053;-89
2023/10/11 02:29:37;;;;;;;10.38;4.50;;;12.80;1.00;;;;;;4936475;29;20456;-89
2023/10/11 02:32:08;;;;;;;8.05;4.55;;;12.90;1.00;;;;;;4936577;29;20467;-89
2023/10/11 02:34:35;;;;;;;8.35;4.60;;;12.90;1.00;;;;;;4936970;29;20398;-89
2023/10/11 02:37:03;;;;;;;8.63;4.35;;;13.00;1.00;;;;;;4940128;29;20405;-89
2023/10/11 02:39:31;;;;;;;8.10;4.40;;;13.00;1.00;;;;;;4951902;28;20441;-90
2023/10/11 02:42:05;;;;;;;7.70;4.20;;;12.80;1.00;;;;;;4935660;29;20492;-89
2023/10/11 02:44:39;;;;;;;5.67;4.60;;;13.20;1.00;;;;;;4943752;28;20817;-89
2023/10/11 02:47:06;;;;;;;9.88;4.20;;;12.70;1.00;;;;;;4958392;28;20426;-89
2023/10/11 02:49:35;;;;;;;10.07;4.30;;;12.90;1.00;;;;;;4956937;29;20422;-89
2023/10/11 02:52:06;;;;;;;8.43;4.78;;;14.00;1.00;;;;;;4957791;29;20381;-90
2023/10/11 02:54:38;;;;;;;7.80;4.50;;;15.80;1.00;;;;;;4956867;29;20465;-89
2023/10/11 02:57:19;;;;;;;8.32;4.03;;;16.30;1.00;;;;;;4937288;29;20394;-89
2023/10/11 02:59:50;;;;;;;6.38;4.00;;;13.70;1.00;;;;;;4937254;29;20819;-89
2023/10/11 03:02:20;;;;;;;6.32;4.35;;;14.10;1.00;;;;;;4954711;29;20398;-88
2023/10/11 03:04:46;;;;;;;9.02;4.22;;;12.60;1.00;;;;;;4936559;29;20489;-88
2023/10/11 03:07:15;;;;;;;11.23;4.57;;;12.80;1.00;;;;;;4954167;29;20429;-88
2023/10/11 03:09:43;;;;;;;9.65;4.28;;;12.70;1.00;;;;;;4944986;28;20442;-88
2023/10/11 03:12:18;;;;;;;8.45;4.30;;;11.40;1.00;;;;;;4958216;29;20409;-89
2023/10/11 03:14:54;;;;;;;7.73;3.60;;;12.50;1.00;;;;;;4976209;28;20432;-89
2023/10/11 03:17:22;;;;;;;7.10;4.07;;;12.50;1.00;;;;;;4972700;28;20417;-90
2023/10/11 03:19:54;;;;;;;8.45;4.30;;;11.30;1.00;;;;;;4956844;29;20404;-89
2023/10/11 03:22:20;;;;;;;9.13;4.30;;;15.80;1.00;;;;;;4957178;28;20410;-89
2023/10/11 03:25:12;;;;;;;5.13;3.60;;;12.10;1.00;;;;;;4937568;29;20415;-89
2023/10/11 03:27:47;;;;;;;7.40;3.80;;;15.50;1.00;;;;;;4938907;29;20428;-88
2023/10/11 03:30:16;;;;;;;8.50;4.80;;;12.40;1.00;;;;;;4941345;29;20472;-88
2023/10/11 03:32:46;;;;;;;8.95;4.47;;;12.40;1.00;;;;;;4941796;29;20472;-89
2023/10/11 03:35:16;;;;;;;10.88;5.15;;;16.10;1.00;;;;;;4947001;29;20402;-89
2023/10/11 03:37:57;;;;;;;10.20;4.80;;;12.10;1.00;;;;;;4963151;28;20406;-89
2023/10/11 03:40:54;;;;;;;9.18;4.57;;;14.00;1.00;;;;;;4975617;28;20893;-89
2023/10/11 03:43:32;;;;;;;5.10;4.10;;;12.50;1.00;;;;;;4955386;29;20457;-89
2023/10/11 03:46:01;;;;;;;7.53;3.90;;;13.10;1.00;;;;;;4977569;28;20514;-89
2023/10/11 03:48:28;;;;;;;7.75;3.80;;;15.60;1.00;;;;;;4960704;28;20804;-89
2023/10/11 03:50:57;;;;;;;6.00;3.80;;;12.60;1.00;;;;;;4946176;29;20880;-89
2023/10/11 03:53:25;;;;;;;8.88;4.40;;;12.40;1.00;;;;;;4960718;29;20401;-89
2023/10/11 03:55:53;;;;;;;8.13;4.40;;;13.30;1.00;;;;;;4952014;29;20823;-89
2023/10/11 03:58:32;;;;;;;6.70;4.57;;;13.80;1.00;;;;;;4957522;29;20484;-89
2023/10/11 04:01:46;;;;;;;10.48;4.30;;;12.50;1.00;;;;;;4940014;29;20494;-89
2023/10/11 04:03:53;;;;;;;10.50;4.93;;;11.90;1.00;;;;;;4931399;29;20407;-89
2023/10/11 04:06:22;;;;;;;8.02;4.03;;;12.30;1.00;;;;;;4924652;29;20407;-89
2023/10/11 04:08:56;;;;;;;6.22;4.20;;;15.90;1.00;;;;;;4963282;28;20491;-89
2023/10/11 04:11:30;;;;;;;6.83;3.40;;;14.50;1.00;;;;;;4942210;29;20488;-89
2023/10/11 04:13:57;;;;;;;7.80;3.97;;;12.30;1.00;;;;;;4940151;29;20390;-89
2023/10/11 04:16:23;;;;;;;7.82;4.40;;;16.20;1.00;;;;;;4940907;29;20394;-88
2023/10/11 04:18:52;;;;;;;8.18;3.90;;;16.30;1.00;;;;;;4939685;29;20781;-88
2023/10/11 04:23:55;;;;;;;11.43;4.78;;;12.50;1.00;;;;;;4956529;29;20401;-89
2023/10/11 04:29:18;;;;;;;8.20;4.50;;;12.40;1.00;;;;;;4957088;29;20461;-88
2023/10/11 04:34:55;;;;;;;7.95;3.55;;;12.40;1.00;;;;;;4952964;29;20426;-88
2023/10/11 04:37:43;;;;;;;9.13;3.75;;;12.10;1.00;;;;;;4957494;29;20405;-87
2023/10/11 04:43:04;;;;;;;9.85;3.95;;;12.40;1.00;;;;;;4912671;29;20482;-87
2023/10/11 04:45:50;;;;;;;7.50;3.97;;;12.10;1.00;;;;;;4964236;28;20435;-87
2023/10/11 04:48:33;;;;;;;7.77;4.50;;;15.80;1.00;;;;;;4949498;28;20500;-87
2023/10/11 04:51:38;;;;;;;9.38;5.05;;;11.40;1.00;;;;;;4942949;29;20430;-88
2023/10/11 04:53:58;;;;;;;8.75;4.38;;;12.30;1.00;;;;;;4942420;28;20437;-88
2023/10/11 04:59:19;;;;;;;6.05;4.20;;;14.70;1.00;;;;;;4959045;28;20413;-88
2023/10/11 05:04:27;;;;;;;10.07;4.65;;;11.40;1.00;;;;;;4968757;28;20396;-87
2023/10/11 05:07:04;;;;;;;7.28;4.72;;;12.00;1.00;;;;;;4977689;28;20392;-88
2023/10/11 05:09:38;;;;;;;10.23;4.38;;;12.00;1.00;;;;;;4972478;28;20473;-88
2023/10/11 05:12:19;;;;;;;8.32;4.00;;;12.90;1.00;;;;;;4963101;28;20404;-89
2023/10/11 05:22:48;;;;;;;8.10;3.80;;;16.10;1.00;;;;;;4979732;28;20418;-88
2023/10/11 05:30:37;;;;;;;11.15;4.50;;;11.80;1.00;;;;;;4943588;29;20419;-88
2023/10/11 05:52:15;;;;;;;8.63;4.07;;;15.70;1.00;;;;;;4944974;29;20386;-88
2023/10/11 05:54:42;;;;;;;6.15;4.10;;;11.40;1.00;;;;;;4941992;29;20827;-89
2023/10/11 05:57:07;;;;;;;8.77;3.90;;;14.10;1.00;;;;;;4940310;29;20398;-89
2023/10/11 05:59:37;;;;;;;7.73;3.90;;;14.20;1.00;;;;;;4939549;29;20528;-88
2023/10/11 06:02:13;;;;;;;7.45;3.70;;;12.10;1.00;;;;;;4940366;29;20879;-88
2023/10/11 06:04:42;;;;;;;9.63;4.03;;;12.80;1.00;;;;;;4955805;29;20401;-87
2023/10/11 06:07:12;;;;;;;9.50;4.00;;;15.20;1.00;;;;;;4939813;29;20416;-89
2023/10/11 06:09:52;;;;;;;8.15;4.10;;;13.40;1.00;;;;;;4938445;29;20410;-88
2023/10/11 06:12:29;;;;;;;7.13;3.80;;;12.10;1.00;;;;;;4939635;29;20390;-89
2023/10/11 06:15:04;;;;;;;7.95;3.65;;;10.40;1.00;;;;;;4938710;29;20402;-89
2023/10/11 06:17:41;;;;;;;8.32;4.45;;;13.80;1.00;;;;;;4939294;29;20436;-88
2023/10/11 06:20:27;;;;;;;10.10;3.80;;;14.40;1.00;;;;;;4940201;29;20410;-89
2023/10/11 06:22:54;;;;;;;7.85;3.70;;;13.00;1.00;;;;;;4948972;29;20517;-87
2023/10/11 06:25:49;;;;;;;7.07;3.80;;;16.50;1.00;;;;;;4949976;29;20493;-89
2023/10/11 06:28:30;;;;;;;11.03;4.40;;;14.00;1.00;;;;;;4966748;28;20390;-89
2023/10/11 06:31:00;;;;;;;6.20;4.20;;;16.50;1.00;;;;;;4958968;29;20406;-88
2023/10/11 06:33:34;;;;;;;10.25;4.43;;;12.40;1.00;;;;;;4947295;29;20409;-88
2023/10/11 06:36:14;;;;;;;10.50;4.50;;;15.40;1.00;;;;;;4944476;29;20394;-89
2023/10/11 06:38:47;;;;;;;10.63;4.30;;;12.70;1.00;;;;;;4940964;29;20482;-88
2023/10/11 06:41:50;;;;;;;11.10;4.35;;;14.90;1.00;;;;;;4942581;29;20917;-88
2023/10/11 06:44:22;;;;;;;5.80;4.10;;;13.90;1.00;;;;;;4960997;28;20439;-90
2023/10/11 06:46:56;;;;;;;10.73;4.78;;;12.90;1.00;;;;;;4950750;29;20430;-88
2023/10/11 06:49:25;;;;;;;7.38;3.80;;;15.40;1.00;;;;;;4942625;29;20420;-87
2023/10/11 06:51:57;;;;;;;8.35;4.07;;;14.30;1.00;;;;;;4943416;29;20400;-89
2023/10/11 06:54:33;;;;;;;6.82;4.00;;;16.40;1.00;;;;;;4945681;29;20390;-88
2023/10/11 06:57:01;;;;;;;8.07;4.15;;;16.40;1.00;;;;;;4944170;29;20481;-88
2023/10/11 06:59:39;;;;;;;6.07;3.78;;;12.80;1.00;;;;;;4940902;29;20460;-89
2023/10/11 07:02:17;;;;;;;8.97;4.40;;;15.10;1.00;;;;;;4940952;29;20459;-88
2023/10/11 07:04:51;;;;;;;7.25;3.90;;;12.80;1.00;;;;;;4949606;29;20401;-89
2023/10/11 07:07:52;;;;;;;9.70;4.50;;;15.20;1.00;;;;;;4955489;29;20409;-88
2023/10/11 07:10:40;;;;;;;10.63;4.57;;;12.90;1.00;;;;;;4938534;29;20413;-87
2023/10/11 07:13:20;;;;;;;6.90;3.85;;;15.80;1.00;;;;;;4936575;29;20892;-89
2023/10/11 07:15:51;;;;;;;7.10;4.20;;;13.50;1.00;;;;;;4928249;29;20409;-89
2023/10/11 07:18:26;;;;;;;8.77;4.53;;;15.50;1.00;;;;;;4935734;28;20464;-85
2023/10/11 07:21:09;;;;;;;14.18;4.88;;;12.80;1.00;;;;;;4944287;29;20481;-86
2023/10/11 07:23:46;;;;;;;10.27;4.90;;;13.40;1.00;;;;;;4943424;29;20409;-86
2023/10/11 07:28:59;;;;;;;12.07;4.83;;;16.40;1.00;;;;;;4967859;28;20447;-86
2023/10/11 07:31:32;;;;;;;8.32;4.10;;;16.90;1.00;;;;;;4951160;28;20761;-87
2023/10/11 07:34:10;;;;;;;11.40;4.13;;;12.80;1.00;;;;;;4940673;29;20898;-86
2023/10/11 07:36:37;;;;;;;7.20;3.60;;;13.30;1.00;;;;;;4937858;29;20802;-86
2023/10/11 07:39:19;;;;;;;9.40;3.60;;;14.20;1.00;;;;;;4962948;28;20484;-88
2023/10/11 07:41:49;;;;;;;9.20;4.35;;;13.40;1.00;;;;;;4958765;29;20501;-87
2023/10/11 07:44:18;;;;;;;9.02;4.25;;;13.30;1.00;;;;;;4952713;28;20416;-87
2023/10/11 07:46:44;;;;;;;10.40;3.97;;;13.60;1.00;;;;;;4930526;29;20834;-86
2023/10/11 07:49:15;;;;;;;8.55;4.30;;;13.70;1.00;;;;;;4939093;29;20414;-87
2023/10/11 07:51:41;;;;;;;8.80;4.40;;;13.60;1.00;;;;;;4938507;28;20925;-86
2023/10/11 07:54:07;;;;;;;9.45;3.90;;;14.20;1.00;;;;;;4958353;28;20405;-86
2023/10/11 07:56:37;;;;;;;7.25;4.03;;;13.40;1.00;;;;;;4944812;29;20462;-87
2023/10/11 07:59:09;;;;;;;9.32;4.40;;;13.60;1.00;;;;;;4937088;29;20406;-87
2023/10/11 08:01:45;;;;;;;9.35;4.55;;;14.50;1.00;;;;;;4936784;29;20464;-86
2023/10/11 08:04:21;;;;;;;7.25;4.22;;;14.20;1.00;;;;;;4934886;29;20411;-86
2023/10/11 08:06:50;;;;;;;9.45;5.32;;;14.30;1.00;;;;;;4947481;28;20477;-86
2023/10/11 08:09:19;;;;;;;11.40;4.30;;;14.40;1.00;;;;;;4949797;28;20444;-86
2023/10/11 08:11:53;;;;;;;11.20;4.18;;;15.00;1.00;;;;;;4936770;29;20389;-87
2023/10/11 08:14:22;;;;;;;9.77;4.30;;;15.00;1.00;;;;;;4933910;28;20418;-86
2023/10/11 08:16:52;;;;;;;8.82;4.40;;;15.10;1.00;;;;;;4953250;28;20401;-86
2023/10/11 08:19:18;;;;;;;9.07;4.50;;;15.10;1.00;;;;;;4948098;28;20410;-86
2023/10/11 08:21:57;;;;;;;9.02;4.10;;;14.90;1.00;;;;;;4935370;29;20409;-88
2023/10/11 08:24:27;;;;;;;8.50;4.70;;;14.60;1.00;;;;;;4956223;28;20446;-86
2023/10/11 08:26:54;;;;;;;9.83;4.80;;;15.00;1.00;;;;;;4936733;29;20425;-85
2023/10/11 08:29:29;;;;;;;12.75;4.15;;;15.40;1.00;;;;;;4957801;28;20786;-86
2023/10/11 08:32:06;;;;;;;7.75;4.18;;;15.10;1.00;;;;;;4948226;28;20436;-87
2023/10/11 08:34:36;;;;;;;10.07;4.78;;;16.50;1.00;;;;;;4947675;28;20404;-87
2023/10/11 08:37:01;;;;;;;8.35;3.90;;;16.70;1.00;;;;;;4977727;28;20400;-86
2023/10/11 08:39:35;;;;;;;10.90;4.57;;;15.30;1.00;;;;;;4959747;28;20396;-86
2023/10/11 08:42:06;;;;;;;11.13;4.25;;;17.50;1.00;;;;;;4941662;29;20481;-86
2023/10/11 08:44:32;;;;;;;8.98;3.80;;;16.70;1.00;;;;;;4947071;28;20411;-86
2023/10/11 08:47:03;;;;;;;7.18;3.45;;;19.30;1.00;;;;;;4960684;28;20396;-87
2023/10/11 08:49:29;;;;;;;8.70;3.97;;;16.30;1.00;;;;;;4943478;29;20453;-87
2023/10/11 08:52:05;;;;;;;8.80;3.85;;;17.40;1.00;;;;;;4958687;29;20866;-86
2023/10/11 08:54:34;;;;;;;8.40;3.70;;;17.40;1.00;;;;;;4960745;29;20435;-86
2023/10/11 08:57:03;;;;;;;9.10;3.90;;;18.40;1.00;;;;;;4957521;29;20427;-87
2023/10/11 08:59:31;;;;;;;9.30;4.13;;;16.50;1.00;;;;;;4955748;29;20406;-86
2023/10/11 09:02:07;;;;;;;9.40;4.90;;;16.90;1.00;;;;;;4974731;29;20981;-87
2023/10/11 09:04:35;;;;;;;9.68;4.82;;;17.50;1.00;;;;;;4976565;29;20429;-86
2023/10/11 09:07:01;;;;;;;10.52;4.47;;;17.70;1.00;;;;;;4974070;29;20400;-86
2023/10/11 09:09:39;;;;;;;9.10;4.60;;;21.00;1.00;;;;;;4958421;29;20513;-87
2023/10/11 09:12:23;;;;;;;9.88;4.40;;;17.40;1.00;;;;;;4955915;29;20402;-87
2023/10/11 09:14:58;;;;;;;9.23;4.47;;;18.30;1.00;;;;;;4954083;29;20410;-87
2023/10/11 09:17:25;;;;;;;8.02;4.70;;;18.20;1.00;;;;;;4953633;29;20406;-86
2023/10/11 09:19:53;;;;;;;6.82;3.85;;;19.40;1.00;;;;;;4955413;29;20398;-86
2023/10/11 09:22:18;;;;;;;7.60;3.95;;;18.00;1.00;;;;;;4946004;29;20409;-86
2023/10/11 09:24:44;;;;;;;6.87;3.90;;;18.40;1.00;;;;;;4942949;29;20829;-87
2023/10/11 09:29:50;;;;;;;9.43;4.22;;;18.30;1.00;;;;;;4938027;29;20427;-86
2023/10/11 09:32:19;;;;;;;9.07;4.10;;;19.20;1.00;;;;;;4936054;29;20402;-86
2023/10/11 09:34:46;;;;;;;7.50;3.90;;;19.80;1.00;;;;;;4941170;29;20457;-86
2023/10/11 09:37:12;;;;;;;10.82;4.50;;;19.10;1.00;;;;;;4943938;29;20865;-86
2023/10/11 09:39:38;;;;;;;10.50;4.10;;;19.50;1.00;;;;;;4965945;29;20401;-86
2023/10/11 09:42:04;;;;;;;10.30;4.50;;;20.80;1.00;;;;;;4943225;29;20948;-87
2023/10/11 09:44:40;;;;;;;9.40;4.00;;;20.80;1.00;;;;;;4946391;28;20416;-86
2023/10/11 09:47:16;;;;;;;8.05;4.13;;;21.10;1.00;;;;;;4959971;28;20400;-86
2023/10/11 09:49:43;;;;;;;12.30;4.17;;;20.60;1.00;;;;;;4951422;29;20802;-86
2023/10/11 09:52:11;;;;;;;10.20;3.67;;;22.20;1.00;;;;;;4940280;29;20447;-87
2023/10/11 09:54:38;;;;;;;6.28;4.00;;;20.60;1.00;;;;;;4940485;29;20402;-87
2023/10/11 09:57:25;;;;;;;8.75;4.05;;;21.20;1.00;;;;;;4940013;29;20455;-87
2023/10/11 09:59:59;;;;;;;9.10;3.80;;;21.50;1.00;;;;;;4957858;29;20448;-87
2023/10/11 10:02:38;;;;;;;8.18;4.20;;;21.60;1.00;;;;;;4937831;28;20475;-87
2023/10/11 10:05:05;;;;;;;11.85;4.85;;;21.80;1.00;;;;;;4946939;28;20884;-87
2023/10/11 10:07:42;;;;;;;7.13;3.60;;;21.90;1.00;;;;;;4967750;28;20941;-87
2023/10/11 10:10:10;;;;;;;11.48;4.20;;;23.10;1.00;;;;;;4936070;29;20426;-87
2023/10/11 10:12:54;;;;;;;8.73;3.80;;;23.30;1.00;;;;;;4937560;28;20776;-87
2023/10/11 10:15:23;;;;;;;9.57;4.10;;;22.30;1.00;;;;;;4951919;28;20401;-87
2023/10/11 10:18:00;;;;;;;12.40;4.10;;;22.90;1.00;;;;;;4959892;28;20407;-87
2023/10/11 10:20:41;;;;;;;11.40;3.95;;;23.80;1.00;;;;;;4939550;29;20406;-86
2023/10/11 10:23:16;;;;;;;9.57;3.50;;;23.60;1.00;;;;;;4942334;29;20414;-87
2023/10/11 10:25:50;;;;;;;9.10;4.13;;;23.60;1.00;;;;;;4960021;28;20400;-87
2023/10/11 10:28:34;;;;;;;8.90;3.33;;;23.40;1.00;;;;;;4952242;28;20400;-85
2023/10/11 10:31:11;;;;;;;6.65;3.40;;;23.70;1.00;;;;;;4965112;28;20401;-88
2023/10/11 10:33:44;;;;;;;6.82;3.20;;;23.80;1.00;;;;;;4945197;29;20405;-85
2023/10/11 10:36:21;;;;;;;11.48;3.35;;;23.80;1.00;;;;;;4944278;28;20548;-89
2023/10/11 10:41:39;;;;;;;6.25;3.30;;;24.20;1.00;;;;;;4969972;28;20468;-87
2023/10/11 10:44:16;;;;;;;6.45;3.60;;;24.30;1.00;;;;;;4947136;28;20898;-88
2023/10/11 10:46:59;;;;;;;7.13;3.55;;;24.40;1.00;;;;;;4938538;29;21005;-86
2023/10/11 10:49:42;;;;;;;9.70;4.00;;;24.90;1.00;;;;;;4950714;28;20941;-87
2023/10/11 10:52:18;;;;;;;6.82;3.92;;;24.90;1.00;;;;;;4959134;28;20400;-87
2023/10/11 10:55:05;;;;;;;8.25;3.72;;;24.90;1.00;;;;;;4927457;28;20991;-87
2023/10/11 10:57:32;;;;;;;5.45;3.33;;;25.00;1.00;;;;;;4946618;29;20405;-86
2023/10/11 10:59:59;;;;;;;10.57;4.10;;;25.20;1.00;;;;;;4940771;29;20421;-86
2023/10/11 11:02:25;;;;;;;9.52;3.67;;;26.00;1.00;;;;;;4947245;28;20449;-87
2023/10/11 11:04:50;;;;;;;9.50;3.33;;;25.90;1.00;;;;;;4945153;29;20402;-87
2023/10/11 11:07:26;;;;;;;8.50;3.87;;;28.30;1.00;;;;;;4938810;28;20906;-87
2023/10/11 11:09:55;;;;;;;9.98;3.10;;;28.30;1.00;;;;;;4939255;29;20449;-88
2023/10/11 11:12:31;;;;;;;8.40;3.53;;;28.70;1.00;;;;;;4955103;28;20402;-86
2023/10/11 11:14:58;;;;;;;8.60;3.72;;;28.10;1.00;;;;;;4947675;29;20409;-86
2023/10/11 11:17:43;;;;;;;7.93;3.65;;;28.30;1.00;;;;;;4970536;28;20417;-88
2023/10/11 11:20:13;;;;;;;11.43;4.28;;;28.20;1.00;;;;;;4947458;29;20822;-87
2023/10/11 11:22:45;;;;;;;12.88;3.42;;;28.40;1.00;;;;;;4953365;29;20378;-87
2023/10/11 11:25:27;;;;;;;7.88;3.70;;;28.40;1.00;;;;;;4951645;28;20417;-88
2023/10/11 11:28:18;;;;;;;6.25;3.70;;;28.70;1.00;;;;;;4942991;29;20444;-86
2023/10/11 11:31:05;;;;;;;9.35;3.80;;;28.60;1.00;;;;;;4962146;29;20413;-87
2023/10/11 11:33:35;;;;;;;8.45;4.20;;;28.10;1.00;;;;;;4959203;29;20405;-87
2023/10/11 11:36:10;;;;;;;9.70;4.10;;;29.30;1.00;;;;;;4927725;29;20433;-87
2023/10/11 11:38:37;;;;;;;9.40;4.00;;;28.10;1.00;;;;;;4959180;29;20494;-87
2023/10/11 11:41:05;;;;;;;6.57;3.67;;;29.30;1.00;;;;;;4972487;28;20393;-87
2023/10/11 11:43:38;;;;;;;7.78;3.63;;;29.40;1.00;;;;;;4977422;28;20417;-87
2023/10/11 11:46:03;;;;;;;8.55;3.70;;;29.30;1.00;;;;;;4939358;29;20437;-86
2023/10/11 11:48:40;;;;;;;8.70;3.77;;;30.20;1.00;;;;;;4940408;29;20449;-87
2023/10/11 11:51:06;;;;;;;8.30;4.27;;;29.70;1.00;;;;;;4946783;29;20580;-87
2023/10/11 11:53:31;;;;;;;6.83;4.00;;;30.10;1.00;;;;;;4942253;29;20405;-86
2023/10/11 11:55:58;;;;;;;6.55;3.72;;;31.00;1.00;;;;;;4943412;29;20747;-87
2023/10/11 11:58:23;;;;;;;7.03;3.50;;;29.90;1.00;;;;;;4942845;29;20910;-87
2023/10/11 12:03:36;;;;;;;6.13;3.90;;;28.80;1.00;;;;;;4958158;29;20416;-87
2023/10/11 12:06:02;;;;;;;6.50;3.67;;;29.70;1.00;;;;;;4943278;29;20401;-87
2023/10/11 12:08:31;;;;;;;10.88;3.80;;;29.40;1.00;;;;;;4959680;29;20405;-87
2023/10/11 12:10:57;;;;;;;6.40;3.90;;;29.80;1.00;;;;;;4962051;29;20464;-87
2023/10/11 12:13:23;;;;;;;8.67;3.97;;;29.00;1.00;;;;;;4963380;29;20409;-87
2023/10/11 12:15:55;;;;;;;7.47;3.97;;;29.50;1.00;;;;;;4946303;29;20401;-87
2023/10/11 12:18:23;;;;;;;8.02;3.65;;;29.50;1.00;;;;;;4944581;29;20442;-87
2023/10/11 12:20:48;;;;;;;11.40;4.10;;;28.10;1.00;;;;;;4943398;29;20470;-87
2023/10/11 12:23:14;;;;;;;6.82;3.92;;;28.60;1.00;;;;;;4961847;29;20973;-87
2023/10/11 12:25:40;;;;;;;8.87;3.43;;;28.50;1.00;;;;;;4942390;29;20402;-87
2023/10/11 12:28:07;;;;;;;7.65;3.67;;;28.70;1.00;;;;;;4944988;29;20401;-87
2023/10/11 12:30:36;;;;;;;7.25;4.10;;;29.70;1.00;;;;;;4963295;28;20412;-87
2023/10/11 12:33:08;;;;;;;8.15;3.60;;;31.80;1.00;;;;;;4973724;28;20401;-87
2023/10/11 12:35:39;;;;;;;8.15;3.58;;;29.10;1.00;;;;;;4977555;28;20382;-87
2023/10/11 12:38:06;;;;;;;6.78;3.65;;;29.90;1.00;;;;;;4954966;28;20413;-87
2023/10/11 12:40:34;;;;;;;5.70;3.80;;;30.00;1.00;;;;;;4962792;28;20408;-87
2023/10/11 12:43:00;;;;;;;6.30;3.60;;;28.80;1.00;;;;;;4975286;28;20406;-87
2023/10/11 12:45:26;;;;;;;7.07;3.90;;;28.90;1.00;;;;;;4954558;28;20475;-87
2023/10/11 12:47:52;;;;;;;5.47;3.23;;;28.20;1.00;;;;;;4957424;28;20398;-86
2023/10/11 12:50:20;;;;;;;6.65;3.70;;;28.80;1.00;;;;;;4975352;28;20413;-87
2023/10/11 12:52:46;;;;;;;5.80;3.30;;;29.80;1.00;;;;;;4945269;29;20450;-86
2023/10/11 12:55:15;;;;;;;5.72;3.30;;;29.70;1.00;;;;;;4950896;28;20393;-87
2023/10/11 12:57:43;;;;;;;8.18;3.70;;;29.20;1.00;;;;;;4967181;28;20457;-87
2023/10/11 13:00:31;;;;;;;5.15;4.00;;;30.20;1.00;;;;;;4943851;29;20495;-87
2023/10/11 13:03:15;;;;;;;5.57;3.30;;;30.20;1.00;;;;;;4974737;28;20463;-86
2023/10/11 13:05:43;;;;;;;6.22;3.42;;;30.20;1.00;;;;;;4966798;28;20425;-87
2023/10/11 13:08:15;;;;;;;7.28;3.90;;;29.70;1.00;;;;;;4955649;28;20396;-86
2023/10/11 13:10:45;;;;;;;5.80;3.33;;;30.10;1.00;;;;;;4953779;28;20494;-87
2023/10/11 13:13:14;;;;;;;7.95;3.50;;;30.80;1.00;;;;;;4952860;29;20405;-88
2023/10/11 13:15:41;;;;;;;7.20;3.67;;;30.20;1.00;;;;;;4952513;29;20411;-87
2023/10/11 13:18:10;;;;;;;6.72;3.30;;;29.40;1.00;;;;;;4952796;28;20441;-87
2023/10/11 13:20:36;;;;;;;5.88;3.55;;;30.90;1.00;;;;;;4946120;29;20410;-87
2023/10/11 13:23:02;;;;;;;6.70;3.40;;;29.80;1.00;;;;;;4978771;28;20396;-86
2023/10/11 13:25:28;;;;;;;5.95;3.17;;;28.40;1.00;;;;;;4963119;28;20428;-86
2023/10/11 13:27:57;;;;;;;9.35;3.47;;;29.60;1.00;;;;;;4939803;29;20414;-86
2023/10/11 13:30:23;;;;;;;3.67;2.97;;;28.30;1.00;;;;;;4957606;29;20486;-86
2023/10/11 13:32:57;;;;;;;4.90;3.60;;;29.20;1.00;;;;;;4950270;29;20478;-86
2023/10/11 13:35:23;;;;;;;5.45;3.28;;;29.30;1.00;;;;;;4948730;29;20409;-87
2023/10/11 13:37:49;;;;;;;6.90;3.00;;;28.20;1.00;;;;;;4949268;29;20806;-87
2023/10/11 13:40:21;;;;;;;6.80;3.30;;;28.60;1.00;;;;;;4963629;28;20429;-86
2023/10/11 13:42:46;;;;;;;6.70;3.75;;;30.70;1.00;;;;;;4947644;29;20481;-87
2023/10/11 13:45:16;;;;;;;5.63;3.40;;;29.80;1.00;;;;;;4958580;28;20786;-88
2023/10/11 13:47:43;;;;;;;5.20;3.10;;;30.70;1.00;;;;;;4962523;29;20446;-87
2023/10/11 13:50:20;;;;;;;4.68;3.10;;;30.40;1.00;;;;;;4961445;29;20413;-87
2023/10/11 13:52:51;;;;;;;6.25;3.28;;;28.90;1.00;;;;;;4962496;29;20402;-88
2023/10/11 13:55:18;;;;;;;5.30;2.90;;;28.80;1.00;;;;;;4950432;29;20763;-87
2023/10/11 13:57:52;;;;;;;4.00;2.65;;;28.90;1.00;;;;;;4961736;29;20401;-86
2023/10/11 14:03:46;;;;;;;7.22;3.53;;;28.70;1.00;;;;;;4960602;29;20924;-87
2023/10/11 14:06:01;;;;;;;5.68;3.30;;;28.80;1.00;;;;;;4954885;29;20430;-86
2023/10/11 14:08:30;;;;;;;5.50;3.50;;;28.70;1.00;;;;;;4941828;29;20486;-87
2023/10/11 14:10:56;;;;;;;5.30;3.30;;;30.00;1.00;;;;;;4945945;29;20461;-87
2023/10/11 14:13:27;;;;;;;7.55;3.30;;;29.00;1.00;;;;;;4964136;28;20450;-86
2023/10/11 14:16:04;;;;;;;7.97;3.40;;;29.50;1.00;;;;;;4952342;28;20404;-86
2023/10/11 14:18:33;;;;;;;4.80;2.97;;;28.70;1.00;;;;;;4954990;28;20412;-86
2023/10/11 14:21:01;;;;;;;8.35;3.60;;;28.90;1.00;;;;;;4961414;28;20396;-86
2023/10/11 14:23:27;;;;;;;7.50;3.00;;;28.60;1.00;;;;;;4946821;29;20898;-86